Time;durP1;ratioP1;P1;durP2;ratioP2;P2;SDS_P1;SDS_P2;PMS_P1;PMS_P2;Temp;Humidity;BMP_temperature;BMP_pressure;BME280_temperature;BME280_humidity;BME280_pressure;Samples;Min_cycle;Max_cycle;Signal;HPM_P1;HPM_P2
2024/01/26 00:02:01;;;;;;;11.40;7.50;;;;;;;;;;10319467;28;20027;-58
2024/01/26 00:07:02;;;;;;;15.50;7.85;;;;;;;;;;10327257;28;20066;-58
2024/01/26 00:12:03;;;;;;;12.20;7.80;;;;;;;;;;10329258;28;20134;-58
2024/01/26 00:17:03;;;;;;;13.63;7.50;;;;;;;;;;10327437;28;20061;-58
2024/01/26 00:22:04;;;;;;;12.05;7.43;;;;;;;;;;10325374;28;20045;-58
2024/01/26 00:27:04;;;;;;;12.60;7.20;;;;;;;;;;10326756;28;20034;-59
2024/01/26 00:32:05;;;;;;;13.85;6.63;;;;;;;;;;10323199;28;20074;-58
2024/01/26 00:37:06;;;;;;;13.15;7.10;;;;;;;;;;10326953;28;20038;-58
2024/01/26 00:42:06;;;;;;;11.40;7.63;;;;;;;;;;10317102;28;20038;-58
2024/01/26 00:47:07;;;;;;;9.18;7.10;;;;;;;;;;10320227;28;20466;-58
2024/01/26 00:52:07;;;;;;;9.50;6.53;;;;;;;;;;10306735;28;20394;-59
2024/01/26 00:57:08;;;;;;;10.00;7.03;;;;;;;;;;10327221;28;20034;-59
2024/01/26 01:02:08;;;;;;;19.35;7.82;;;;;;;;;;10323668;28;20041;-58
2024/01/26 01:07:09;;;;;;;11.30;7.10;;;;;;;;;;10326791;28;20372;-58
2024/01/26 01:12:10;;;;;;;13.55;6.65;;;;;;;;;;10319710;28;20433;-59
2024/01/26 01:17:11;;;;;;;7.30;5.85;;;;;;;;;;10326452;28;20037;-59
2024/01/26 01:22:12;;;;;;;10.48;6.35;;;;;;;;;;10325064;28;20041;-58
2024/01/26 01:27:13;;;;;;;10.85;6.45;;;;;;;;;;10325446;28;20042;-58
2024/01/26 01:32:13;;;;;;;10.48;6.47;;;;;;;;;;10325229;28;20034;-58
2024/01/26 01:37:14;;;;;;;9.90;6.43;;;;;;;;;;10325841;28;20522;-58
2024/01/26 01:42:15;;;;;;;11.93;6.28;;;;;;;;;;10323790;28;20161;-58
2024/01/26 01:47:15;;;;;;;9.63;6.18;;;;;;;;;;10312137;28;20127;-58
2024/01/26 01:52:17;;;;;;;9.25;6.32;;;;;;;;;;10317591;28;20078;-58
2024/01/26 01:57:20;;;;;;;9.00;5.60;;;;;;;;;;10310815;28;20486;-58
2024/01/26 02:02:23;;;;;;;8.43;5.70;;;;;;;;;;10318384;28;20036;-58
2024/01/26 02:07:25;;;;;;;9.18;6.38;;;;;;;;;;10323486;28;20035;-58
2024/01/26 02:12:25;;;;;;;7.90;5.93;;;;;;;;;;10319099;28;20098;-58
2024/01/26 02:17:34;;;;;;;8.48;5.93;;;;;;;;;;10321804;28;20485;-58
2024/01/26 02:22:36;;;;;;;9.10;5.88;;;;;;;;;;10323501;28;20049;-58
2024/01/26 02:27:37;;;;;;;8.88;6.38;;;;;;;;;;10318468;28;20034;-59
2024/01/26 02:32:37;;;;;;;8.95;5.53;;;;;;;;;;10324722;28;20053;-59
2024/01/26 02:37:38;;;;;;;8.63;5.50;;;;;;;;;;10316475;28;20046;-59
2024/01/26 02:42:39;;;;;;;12.63;5.45;;;;;;;;;;10324612;28;20037;-58
2024/01/26 02:47:39;;;;;;;7.70;5.57;;;;;;;;;;10321153;28;20085;-58
2024/01/26 02:52:40;;;;;;;8.05;5.63;;;;;;;;;;10320401;28;20049;-59
2024/01/26 02:57:41;;;;;;;8.55;6.30;;;;;;;;;;10331984;28;20030;-59
2024/01/26 03:02:41;;;;;;;8.00;5.43;;;;;;;;;;10324852;28;20030;-59
2024/01/26 03:07:42;;;;;;;9.65;5.47;;;;;;;;;;10321236;28;20046;-59
2024/01/26 03:12:42;;;;;;;7.00;5.57;;;;;;;;;;10330989;28;20057;-59
2024/01/26 03:17:43;;;;;;;8.10;5.38;;;;;;;;;;10323476;28;20463;-58
2024/01/26 03:22:44;;;;;;;6.90;5.38;;;;;;;;;;10330917;28;20049;-59
2024/01/26 03:27:44;;;;;;;7.03;5.28;;;;;;;;;;10323106;28;20042;-59
2024/01/26 03:32:45;;;;;;;9.93;5.85;;;;;;;;;;10330852;28;20022;-59
2024/01/26 03:37:46;;;;;;;8.02;5.32;;;;;;;;;;10322597;28;20039;-59
2024/01/26 03:42:46;;;;;;;6.85;5.20;;;;;;;;;;10329780;28;20151;-58
2024/01/26 03:47:47;;;;;;;6.95;5.05;;;;;;;;;;10327128;28;20157;-59
2024/01/26 03:52:48;;;;;;;8.27;5.22;;;;;;;;;;10329269;28;20039;-59
2024/01/26 03:57:48;;;;;;;6.80;4.80;;;;;;;;;;10318441;28;20081;-58
2024/01/26 04:02:49;;;;;;;10.80;5.97;;;;;;;;;;10325130;28;20470;-58
2024/01/26 04:07:49;;;;;;;6.57;5.38;;;;;;;;;;10328044;28;20030;-59
2024/01/26 04:12:50;;;;;;;9.23;5.03;;;;;;;;;;10319695;28;20042;-58
2024/01/26 04:17:50;;;;;;;9.32;5.43;;;;;;;;;;10329551;28;20031;-58
2024/01/26 04:22:51;;;;;;;7.65;5.32;;;;;;;;;;10318851;28;20034;-58
2024/01/26 04:27:51;;;;;;;6.85;5.28;;;;;;;;;;10326723;28;20449;-58
2024/01/26 04:32:52;;;;;;;7.43;5.57;;;;;;;;;;10328143;28;20591;-58
2024/01/26 04:37:53;;;;;;;7.40;5.00;;;;;;;;;;10322811;28;20415;-58
2024/01/26 04:42:54;;;;;;;8.35;5.50;;;;;;;;;;10328472;28;20593;-58
2024/01/26 04:47:54;;;;;;;6.38;5.20;;;;;;;;;;10324738;28;20038;-59
2024/01/26 04:52:55;;;;;;;6.55;5.15;;;;;;;;;;10327584;28;20088;-59
2024/01/26 04:57:56;;;;;;;6.25;5.07;;;;;;;;;;10316840;28;20034;-59
2024/01/26 05:02:56;;;;;;;7.10;5.05;;;;;;;;;;10327160;28;20543;-58
2024/01/26 05:07:56;;;;;;;7.20;5.35;;;;;;;;;;10317511;28;20043;-59
2024/01/26 05:12:57;;;;;;;7.72;5.10;;;;;;;;;;10324418;28;20057;-59
2024/01/26 05:17:57;;;;;;;5.90;5.03;;;;;;;;;;10325113;28;20049;-59
2024/01/26 05:22:58;;;;;;;6.35;4.90;;;;;;;;;;10325930;28;20080;-59
2024/01/26 05:27:58;;;;;;;5.65;5.05;;;;;;;;;;10318976;28;20045;-60
2024/01/26 05:33:00;;;;;;;6.07;4.80;;;;;;;;;;10326237;28;20050;-59
2024/01/26 05:38:01;;;;;;;6.22;5.10;;;;;;;;;;10317526;28;20049;-59
2024/01/26 05:43:01;;;;;;;6.53;4.63;;;;;;;;;;10325756;28;20470;-59
2024/01/26 05:48:02;;;;;;;6.97;4.70;;;;;;;;;;10315151;28;20030;-58
2024/01/26 05:53:02;;;;;;;4.85;4.35;;;;;;;;;;10311982;28;20034;-58
2024/01/26 05:58:03;;;;;;;5.25;4.50;;;;;;;;;;10325131;28;20039;-59
2024/01/26 06:03:04;;;;;;;5.28;4.78;;;;;;;;;;10325097;28;20031;-58
2024/01/26 06:08:04;;;;;;;5.47;4.60;;;;;;;;;;10320065;28;20034;-57
2024/01/26 06:13:05;;;;;;;5.38;4.13;;;;;;;;;;10324177;28;20109;-57
2024/01/26 06:18:05;;;;;;;6.03;4.22;;;;;;;;;;10324332;28;20077;-57
2024/01/26 06:23:06;;;;;;;6.88;4.63;;;;;;;;;;10323094;28;20034;-58
2024/01/26 06:28:06;;;;;;;7.43;4.35;;;;;;;;;;10318574;28;20042;-59
2024/01/26 06:33:07;;;;;;;4.93;4.28;;;;;;;;;;10322246;28;20089;-58
2024/01/26 06:38:07;;;;;;;6.32;4.28;;;;;;;;;;10324396;28;20050;-58
2024/01/26 06:43:08;;;;;;;6.43;4.85;;;;;;;;;;10328409;28;20031;-57
2024/01/26 06:48:09;;;;;;;6.40;4.80;;;;;;;;;;10331053;28;20216;-57
2024/01/26 06:53:09;;;;;;;7.35;4.80;;;;;;;;;;10331846;28;20104;-57
2024/01/26 06:58:10;;;;;;;15.68;6.32;;;;;;;;;;10330350;28;20038;-56
2024/01/26 07:03:10;;;;;;;12.05;6.13;;;;;;;;;;10324932;28;20077;-56
2024/01/26 07:08:11;;;;;;;9.25;6.10;;;;;;;;;;10331304;28;20500;-56
2024/01/26 07:13:11;;;;;;;16.20;6.43;;;;;;;;;;10328389;28;20057;-54
2024/01/26 07:18:11;;;;;;;25.42;7.25;;;;;;;;;;10332107;28;20030;-57
2024/01/26 07:23:12;;;;;;;13.82;7.15;;;;;;;;;;10293319;28;20033;-57
2024/01/26 07:28:12;;;;;;;11.80;7.70;;;;;;;;;;10195706;28;20034;-57
2024/01/26 07:33:13;;;;;;;10.80;7.15;;;;;;;;;;10215405;28;20093;-57
2024/01/26 07:38:13;;;;;;;16.58;7.22;;;;;;;;;;10212725;28;20544;-56
2024/01/26 07:43:14;;;;;;;12.38;7.63;;;;;;;;;;10220150;28;20165;-57
2024/01/26 07:48:14;;;;;;;13.63;6.82;;;;;;;;;;10217284;28;20037;-57
2024/01/26 07:53:15;;;;;;;13.73;8.57;;;;;;;;;;10217371;28;20067;-59
2024/01/26 07:58:15;;;;;;;13.32;8.07;;;;;;;;;;10219643;28;20076;-58
2024/01/26 08:03:16;;;;;;;21.52;7.50;;;;;;;;;;10305850;28;20022;-58
2024/01/26 08:08:16;;;;;;;13.13;8.80;;;;;;;;;;10327691;28;20057;-58
2024/01/26 08:13:16;;;;;;;14.75;8.48;;;;;;;;;;10328326;28;20030;-58
2024/01/26 08:18:17;;;;;;;18.27;8.00;;;;;;;;;;10329714;28;20022;-58
2024/01/26 08:23:17;;;;;;;11.27;7.75;;;;;;;;;;10325128;28;20015;-59
2024/01/26 08:28:18;;;;;;;20.55;8.50;;;;;;;;;;10322216;28;20474;-59
2024/01/26 08:33:18;;;;;;;13.55;8.35;;;;;;;;;;10321036;28;20486;-59
2024/01/26 08:38:18;;;;;;;14.00;8.45;;;;;;;;;;10327256;28;20509;-59
2024/01/26 08:43:19;;;;;;;17.83;8.68;;;;;;;;;;10320896;28;20041;-58
2024/01/26 08:48:19;;;;;;;12.40;8.45;;;;;;;;;;10324284;28;20193;-59
2024/01/26 08:53:20;;;;;;;13.07;8.70;;;;;;;;;;10326739;28;20106;-59
2024/01/26 08:58:20;;;;;;;15.05;8.82;;;;;;;;;;10328638;28;20049;-59
2024/01/26 09:03:21;;;;;;;16.50;8.50;;;;;;;;;;10326969;28;20033;-59
2024/01/26 09:08:21;;;;;;;16.15;8.77;;;;;;;;;;10296213;28;20037;-58
2024/01/26 09:13:22;;;;;;;15.40;9.43;;;;;;;;;;10209185;28;20153;-58
2024/01/26 09:18:22;;;;;;;15.05;9.18;;;;;;;;;;10232483;28;20271;-58
2024/01/26 09:23:23;;;;;;;14.98;8.75;;;;;;;;;;10283945;28;20037;-58
2024/01/26 09:28:23;;;;;;;19.73;9.77;;;;;;;;;;10315590;28;20046;-58
2024/01/26 09:33:24;;;;;;;16.27;9.00;;;;;;;;;;10302897;28;20075;-58
2024/01/26 09:38:24;;;;;;;16.08;8.20;;;;;;;;;;10308842;28;20061;-58
2024/01/26 09:43:25;;;;;;;12.60;8.70;;;;;;;;;;10296695;28;20034;-58
2024/01/26 09:48:25;;;;;;;16.98;8.90;;;;;;;;;;10312633;28;20030;-58
2024/01/26 09:53:26;;;;;;;16.00;9.07;;;;;;;;;;10318643;28;20072;-58
2024/01/26 09:58:27;;;;;;;13.38;8.60;;;;;;;;;;10316996;28;20034;-58
2024/01/26 10:03:28;;;;;;;17.13;8.88;;;;;;;;;;10323325;28;20026;-58
2024/01/26 10:08:38;;;;;;;15.55;8.10;;;;;;;;;;10278610;28;20147;-58
2024/01/26 10:13:38;;;;;;;14.35;8.43;;;;;;;;;;10261544;28;20030;-58
2024/01/26 10:18:39;;;;;;;17.52;9.80;;;;;;;;;;10318936;28;20022;-58
2024/01/26 10:23:40;;;;;;;12.25;8.45;;;;;;;;;;10269174;28;20082;-59
2024/01/26 10:28:40;;;;;;;18.17;8.63;;;;;;;;;;10267343;28;20107;-58
2024/01/26 10:33:45;;;;;;;14.63;9.02;;;;;;;;;;10212010;28;20133;-58
2024/01/26 10:38:46;;;;;;;10.52;7.97;;;;;;;;;;10269495;28;20397;-58
2024/01/26 10:43:50;;;;;;;16.05;8.63;;;;;;;;;;10309284;28;20034;-58
2024/01/26 10:48:52;;;;;;;15.50;9.38;;;;;;;;;;10324759;28;20379;-58
2024/01/26 10:53:54;;;;;;;16.02;8.73;;;;;;;;;;10320452;28;20026;-58
2024/01/26 10:58:54;;;;;;;11.95;7.78;;;;;;;;;;10302479;28;20359;-58
2024/01/26 11:03:56;;;;;;;12.32;8.18;;;;;;;;;;10330193;28;20025;-58
2024/01/26 11:09:01;;;;;;;13.45;8.05;;;;;;;;;;10300740;28;20416;-58
2024/01/26 11:14:02;;;;;;;11.18;7.70;;;;;;;;;;10293768;28;20048;-58
2024/01/26 11:19:03;;;;;;;12.25;8.18;;;;;;;;;;10325749;28;20110;-58
2024/01/26 11:24:14;;;;;;;13.40;8.40;;;;;;;;;;10327585;28;20029;-58
2024/01/26 11:29:15;;;;;;;11.10;7.38;;;;;;;;;;10294679;28;20470;-58
2024/01/26 11:34:19;;;;;;;10.02;7.47;;;;;;;;;;10326526;28;20014;-59
2024/01/26 11:39:20;;;;;;;16.55;7.55;;;;;;;;;;10314207;28;20452;-58
2024/01/26 11:44:22;;;;;;;12.02;7.93;;;;;;;;;;10275879;28;20031;-58
2024/01/26 11:49:23;;;;;;;11.10;7.75;;;;;;;;;;10300581;28;22249;-58
2024/01/26 11:54:23;;;;;;;12.23;7.85;;;;;;;;;;10215325;28;20037;-58
2024/01/26 11:59:24;;;;;;;11.85;7.45;;;;;;;;;;10199849;28;20116;-58
2024/01/26 12:04:24;;;;;;;10.98;7.50;;;;;;;;;;10202798;28;20034;-59
2024/01/26 12:09:24;;;;;;;12.38;7.97;;;;;;;;;;10212337;28;20030;-57
2024/01/26 12:14:26;;;;;;;9.00;7.07;;;;;;;;;;10211473;28;20064;-58
2024/01/26 12:19:27;;;;;;;10.27;6.65;;;;;;;;;;10221668;28;20505;-57
2024/01/26 12:24:27;;;;;;;12.05;7.70;;;;;;;;;;10278089;28;20050;-57
2024/01/26 12:29:29;;;;;;;9.05;6.82;;;;;;;;;;10326166;28;20112;-57
2024/01/26 12:34:30;;;;;;;10.13;7.72;;;;;;;;;;10315764;28;20483;-58
2024/01/26 12:39:30;;;;;;;9.38;7.07;;;;;;;;;;10300600;28;20046;-58
2024/01/26 12:44:32;;;;;;;9.32;6.88;;;;;;;;;;10220932;28;22670;-57
2024/01/26 12:49:34;;;;;;;10.98;7.28;;;;;;;;;;10211015;28;22741;-57
2024/01/26 12:54:34;;;;;;;10.23;7.25;;;;;;;;;;10287587;28;20457;-57
2024/01/26 12:59:37;;;;;;;13.45;7.03;;;;;;;;;;10224217;28;20089;-58
2024/01/26 13:04:39;;;;;;;11.23;7.50;;;;;;;;;;10312409;28;20482;-57
2024/01/26 13:09:39;;;;;;;10.30;7.05;;;;;;;;;;10213943;28;20029;-58
2024/01/26 13:14:40;;;;;;;9.35;6.55;;;;;;;;;;10207090;28;20058;-58
2024/01/26 13:19:40;;;;;;;11.05;7.22;;;;;;;;;;10213488;28;20026;-58
2024/01/26 13:24:41;;;;;;;9.18;6.45;;;;;;;;;;10212829;28;20076;-58
2024/01/26 13:29:41;;;;;;;10.07;6.70;;;;;;;;;;10211809;28;20053;-58
2024/01/26 13:34:42;;;;;;;8.27;6.63;;;;;;;;;;10212885;28;20061;-58
2024/01/26 13:39:42;;;;;;;7.32;5.75;;;;;;;;;;10239906;28;20042;-58
2024/01/26 13:44:44;;;;;;;9.95;6.85;;;;;;;;;;10312764;28;20383;-58
2024/01/26 13:49:46;;;;;;;8.30;6.07;;;;;;;;;;10249586;28;20490;-58
2024/01/26 13:54:47;;;;;;;9.88;6.32;;;;;;;;;;10289197;28;20132;-57
2024/01/26 13:59:47;;;;;;;8.43;6.47;;;;;;;;;;10318925;28;20035;-58
2024/01/26 14:04:48;;;;;;;6.55;5.70;;;;;;;;;;10272933;28;20042;-58
2024/01/26 14:09:49;;;;;;;9.55;6.28;;;;;;;;;;10271937;28;20037;-58
2024/01/26 14:14:51;;;;;;;7.68;6.07;;;;;;;;;;10320151;28;20037;-58
2024/01/26 14:19:52;;;;;;;8.07;5.93;;;;;;;;;;10325438;28;20497;-58
2024/01/26 14:24:53;;;;;;;8.65;6.30;;;;;;;;;;10325058;28;20357;-58
2024/01/26 14:29:54;;;;;;;12.00;6.03;;;;;;;;;;10320735;28;20125;-58
2024/01/26 14:34:54;;;;;;;7.80;5.90;;;;;;;;;;10318775;28;20014;-58
2024/01/26 14:39:55;;;;;;;7.82;5.55;;;;;;;;;;10324155;28;20060;-58
2024/01/26 14:44:56;;;;;;;6.88;5.45;;;;;;;;;;10325478;28;20027;-58
2024/01/26 14:49:58;;;;;;;7.65;5.82;;;;;;;;;;10323446;28;20030;-59
2024/01/26 14:54:59;;;;;;;7.88;6.47;;;;;;;;;;10332478;28;20019;-58
2024/01/26 15:00:01;;;;;;;9.00;6.28;;;;;;;;;;10331439;28;20470;-58
2024/01/26 15:05:07;;;;;;;10.43;6.30;;;;;;;;;;10331622;28;20269;-58
2024/01/26 15:10:08;;;;;;;9.38;6.25;;;;;;;;;;10321209;28;20034;-58
2024/01/26 15:15:09;;;;;;;6.78;5.30;;;;;;;;;;10331301;28;20038;-58
2024/01/26 15:20:10;;;;;;;8.00;6.00;;;;;;;;;;10331243;28;20101;-58
2024/01/26 15:25:13;;;;;;;7.95;5.90;;;;;;;;;;10330819;28;20426;-58
2024/01/26 15:30:14;;;;;;;6.55;5.80;;;;;;;;;;10327973;28;20058;-58
2024/01/26 15:35:15;;;;;;;7.85;5.53;;;;;;;;;;10318236;28;20029;-58
2024/01/26 15:40:16;;;;;;;9.13;6.00;;;;;;;;;;10331429;28;20046;-58
2024/01/26 15:45:16;;;;;;;7.20;5.70;;;;;;;;;;10331494;28;20030;-58
2024/01/26 15:50:17;;;;;;;7.60;6.15;;;;;;;;;;10326449;28;20038;-58
2024/01/26 15:55:18;;;;;;;6.97;5.32;;;;;;;;;;10329171;28;20030;-58
2024/01/26 16:00:18;;;;;;;11.15;5.88;;;;;;;;;;10331185;28;20552;-58
2024/01/26 16:05:19;;;;;;;6.13;5.10;;;;;;;;;;10325015;28;20022;-58
2024/01/26 16:10:20;;;;;;;6.57;5.50;;;;;;;;;;10328314;28;20034;-58
2024/01/26 16:15:20;;;;;;;7.65;5.38;;;;;;;;;;10321064;28;20030;-57
2024/01/26 16:20:21;;;;;;;8.57;6.05;;;;;;;;;;10328726;28;20034;-58
2024/01/26 16:25:23;;;;;;;8.75;5.93;;;;;;;;;;10326136;28;20054;-57
2024/01/26 16:30:23;;;;;;;6.72;5.45;;;;;;;;;;10315622;28;20088;-58
2024/01/26 16:35:24;;;;;;;7.78;5.53;;;;;;;;;;10327894;28;20045;-58
2024/01/26 16:40:26;;;;;;;6.75;5.55;;;;;;;;;;10327565;28;20046;-58
2024/01/26 16:45:27;;;;;;;6.97;5.20;;;;;;;;;;10328333;28;20038;-57
2024/01/26 16:50:28;;;;;;;9.18;6.10;;;;;;;;;;10321722;28;20030;-57
2024/01/26 16:55:28;;;;;;;7.95;5.70;;;;;;;;;;10327354;28;20085;-57
2024/01/26 17:00:29;;;;;;;6.80;5.15;;;;;;;;;;10327624;28;20037;-57
2024/01/26 17:05:30;;;;;;;8.10;5.97;;;;;;;;;;10322861;28;20057;-57
2024/01/26 17:10:30;;;;;;;6.22;5.07;;;;;;;;;;10326149;28;20041;-57
2024/01/26 17:15:31;;;;;;;5.68;4.93;;;;;;;;;;10326993;28;20092;-58
2024/01/26 17:20:31;;;;;;;6.80;5.60;;;;;;;;;;10326286;28;20035;-57
2024/01/26 17:25:32;;;;;;;9.25;5.85;;;;;;;;;;10315081;28;20030;-57
2024/01/26 17:30:32;;;;;;;8.35;5.65;;;;;;;;;;10325755;28;20045;-57
2024/01/26 17:35:33;;;;;;;7.95;5.65;;;;;;;;;;10324286;28;20023;-58
2024/01/26 17:40:34;;;;;;;7.20;5.65;;;;;;;;;;10312828;28;20042;-58
2024/01/26 17:45:34;;;;;;;8.20;5.70;;;;;;;;;;10325329;28;20034;-57
2024/01/26 17:50:35;;;;;;;6.78;5.68;;;;;;;;;;10317793;28;20169;-57
2024/01/26 17:55:36;;;;;;;8.52;6.47;;;;;;;;;;10318640;28;20509;-58
2024/01/26 18:00:36;;;;;;;10.13;6.57;;;;;;;;;;10317361;28;20026;-59
2024/01/26 18:05:37;;;;;;;9.27;6.60;;;;;;;;;;10326322;28;20034;-59
2024/01/26 18:10:37;;;;;;;8.95;6.97;;;;;;;;;;10321757;28;20034;-59
2024/01/26 18:15:38;;;;;;;10.27;7.45;;;;;;;;;;10325173;28;20034;-59
2024/01/26 18:20:39;;;;;;;9.32;7.13;;;;;;;;;;10323461;28;20045;-60
2024/01/26 18:25:39;;;;;;;11.48;7.65;;;;;;;;;;10316971;28;20035;-59
2024/01/26 18:30:40;;;;;;;9.68;7.43;;;;;;;;;;10315764;28;20045;-59
2024/01/26 18:35:41;;;;;;;16.05;7.20;;;;;;;;;;10324348;28;20019;-60
2024/01/26 18:40:41;;;;;;;9.60;7.10;;;;;;;;;;10324692;28;20053;-60
2024/01/26 18:45:42;;;;;;;12.27;8.15;;;;;;;;;;10323614;28;20044;-60
2024/01/26 18:50:43;;;;;;;13.07;8.05;;;;;;;;;;10322915;28;20042;-60
2024/01/26 18:55:47;;;;;;;13.68;9.52;;;;;;;;;;10324810;28;20323;-59
2024/01/26 19:00:47;;;;;;;13.55;9.63;;;;;;;;;;10325260;28;20030;-60
2024/01/26 19:05:48;;;;;;;12.02;8.98;;;;;;;;;;10323339;28;20035;-60
2024/01/26 19:10:48;;;;;;;12.38;8.43;;;;;;;;;;10322867;28;20053;-60
2024/01/26 19:15:49;;;;;;;11.80;9.32;;;;;;;;;;10324139;28;20470;-59
2024/01/26 19:20:50;;;;;;;19.17;10.05;;;;;;;;;;10324301;28;20479;-58
2024/01/26 19:25:50;;;;;;;15.38;9.73;;;;;;;;;;10325137;28;20446;-58
2024/01/26 19:30:51;;;;;;;15.82;10.93;;;;;;;;;;10321561;28;20038;-59
2024/01/26 19:35:52;;;;;;;16.20;10.85;;;;;;;;;;10316956;28;20038;-60
2024/01/26 19:40:54;;;;;;;16.23;10.55;;;;;;;;;;10331414;28;20045;-59
2024/01/26 19:45:55;;;;;;;14.38;10.38;;;;;;;;;;10330228;28;20484;-59
2024/01/26 19:50:55;;;;;;;16.70;10.65;;;;;;;;;;10324602;28;20039;-60
2024/01/26 19:55:56;;;;;;;32.63;12.15;;;;;;;;;;10315551;28;20069;-60
2024/01/26 20:00:56;;;;;;;22.15;11.70;;;;;;;;;;10326397;28;20588;-60
2024/01/26 20:05:57;;;;;;;20.15;11.95;;;;;;;;;;10324120;28;20559;-59
2024/01/26 20:10:58;;;;;;;19.13;10.70;;;;;;;;;;10326954;28;20389;-60
2024/01/26 20:15:58;;;;;;;20.10;13.18;;;;;;;;;;10329042;28;20540;-59
2024/01/26 20:21:04;;;;;;;24.90;12.60;;;;;;;;;;10330362;28;20049;-59
2024/01/26 20:26:06;;;;;;;26.90;13.05;;;;;;;;;;10339880;28;20110;-58
2024/01/26 20:31:07;;;;;;;24.30;12.30;;;;;;;;;;10326721;28;20034;-60
2024/01/26 20:36:07;;;;;;;22.60;12.55;;;;;;;;;;10323210;28;20382;-59
2024/01/26 20:41:09;;;;;;;22.92;12.27;;;;;;;;;;10316799;28;20096;-59
2024/01/26 20:46:09;;;;;;;20.35;12.35;;;;;;;;;;10329826;28;20419;-59
2024/01/26 20:51:10;;;;;;;17.33;12.68;;;;;;;;;;10324318;28;20033;-59
2024/01/26 20:56:11;;;;;;;19.75;13.40;;;;;;;;;;10319212;28;20030;-59
2024/01/26 21:01:11;;;;;;;20.15;13.25;;;;;;;;;;10326647;28;20031;-60
2024/01/26 21:06:12;;;;;;;23.90;14.13;;;;;;;;;;10334305;28;20030;-59
2024/01/26 21:11:13;;;;;;;18.30;12.63;;;;;;;;;;10318731;28;20037;-60
2024/01/26 21:16:14;;;;;;;22.13;12.93;;;;;;;;;;10327300;28;20026;-60
2024/01/26 21:21:14;;;;;;;23.52;15.20;;;;;;;;;;10323291;28;20061;-59
2024/01/26 21:26:15;;;;;;;20.02;14.27;;;;;;;;;;10325066;28;20034;-58
2024/01/26 21:31:16;;;;;;;22.88;15.07;;;;;;;;;;10319115;28;20037;-59
2024/01/26 21:36:16;;;;;;;22.20;14.75;;;;;;;;;;10319266;28;20089;-59
2024/01/26 21:41:17;;;;;;;22.15;13.10;;;;;;;;;;10314290;28;20104;-59
2024/01/26 21:46:18;;;;;;;23.38;13.77;;;;;;;;;;10314848;28;20405;-59
2024/01/26 21:51:19;;;;;;;20.70;13.05;;;;;;;;;;10325203;28;20037;-59
2024/01/26 21:56:20;;;;;;;32.78;13.38;;;;;;;;;;10325373;28;20026;-59
2024/01/26 22:01:21;;;;;;;21.63;13.00;;;;;;;;;;10313000;28;20065;-59
2024/01/26 22:06:22;;;;;;;20.63;13.90;;;;;;;;;;10318232;28;20023;-59
2024/01/26 22:11:26;;;;;;;19.13;12.65;;;;;;;;;;10306226;28;20045;-59
2024/01/26 22:16:27;;;;;;;16.02;12.40;;;;;;;;;;10322185;28;20057;-59
2024/01/26 22:21:28;;;;;;;19.92;12.20;;;;;;;;;;10322460;28;20142;-59
2024/01/26 22:26:29;;;;;;;15.90;11.43;;;;;;;;;;10323145;28;20034;-59
2024/01/26 22:31:30;;;;;;;18.13;11.55;;;;;;;;;;10321896;28;20109;-58
2024/01/26 22:36:32;;;;;;;16.95;12.23;;;;;;;;;;10321143;28;20080;-58
2024/01/26 22:41:33;;;;;;;19.42;12.73;;;;;;;;;;10321701;28;20030;-58
2024/01/26 22:46:35;;;;;;;17.45;12.07;;;;;;;;;;10301855;28;20031;-60
2024/01/26 22:51:36;;;;;;;18.60;11.70;;;;;;;;;;10320369;28;20034;-59
2024/01/26 22:56:37;;;;;;;17.52;11.98;;;;;;;;;;10302104;28;20026;-59
2024/01/26 23:01:38;;;;;;;16.48;13.00;;;;;;;;;;10302409;28;20093;-60
2024/01/26 23:06:38;;;;;;;17.48;13.00;;;;;;;;;;10314092;28;20478;-61
2024/01/26 23:11:39;;;;;;;16.70;13.40;;;;;;;;;;10328530;28;20038;-61
2024/01/26 23:16:40;;;;;;;22.30;13.95;;;;;;;;;;10328107;28;20162;-61
2024/01/26 23:21:41;;;;;;;21.08;13.95;;;;;;;;;;10330841;28;20041;-62
2024/01/26 23:26:41;;;;;;;21.58;15.15;;;;;;;;;;10329432;28;20044;-61
2024/01/26 23:31:43;;;;;;;21.00;14.65;;;;;;;;;;10328961;28;20026;-61
2024/01/26 23:36:43;;;;;;;22.13;14.90;;;;;;;;;;10330066;28;20483;-60
2024/01/26 23:41:44;;;;;;;20.60;14.77;;;;;;;;;;10328784;28;20077;-62
2024/01/26 23:46:45;;;;;;;20.42;15.18;;;;;;;;;;10329033;28;20041;-61
2024/01/26 23:51:45;;;;;;;23.20;15.60;;;;;;;;;;10319523;28;20096;-61
2024/01/26 23:56:46;;;;;;;28.67;14.80;;;;;;;;;;10328562;28;20493;-61
